Time;durP1;ratioP1;P1;durP2;ratioP2;P2;SDS_P1;SDS_P2;PMS_P1;PMS_P2;Temp;Humidity;BMP_temperature;BMP_pressure;BME280_temperature;BME280_humidity;BME280_pressure;Samples;Min_cycle;Max_cycle;Signal;HPM_P1;HPM_P2
2023/10/28 00:02:05;;;;;;;7.50;2.30;;;12.20;99.90;;;;;;5017769;28;20540;-84
2023/10/28 00:04:31;;;;;;;7.13;2.43;;;12.10;99.90;;;;;;5017377;28;20162;-82
2023/10/28 00:06:57;;;;;;;4.03;2.20;;;12.20;99.90;;;;;;5016677;28;20622;-80
2023/10/28 00:09:23;;;;;;;5.17;2.20;;;12.00;99.90;;;;;;5015778;28;20305;-83
2023/10/28 00:11:50;;;;;;;4.97;2.40;;;12.20;99.90;;;;;;5016408;28;20174;-80
2023/10/28 00:14:17;;;;;;;5.77;2.40;;;12.20;99.90;;;;;;5017490;28;20282;-83
2023/10/28 00:16:48;;;;;;;5.57;2.60;;;12.20;99.90;;;;;;5017137;28;20162;-80
2023/10/28 00:19:14;;;;;;;6.73;2.80;;;12.10;99.90;;;;;;5015542;28;20174;-80
2023/10/28 00:21:39;;;;;;;8.50;3.10;;;12.20;99.90;;;;;;5017223;28;20174;-82
2023/10/28 00:24:05;;;;;;;7.13;3.93;;;12.30;99.90;;;;;;5031376;28;20166;-81
2023/10/28 00:26:31;;;;;;;5.10;2.97;;;12.20;99.90;;;;;;5015956;28;20260;-81
2023/10/28 00:28:57;;;;;;;4.17;2.70;;;12.20;99.90;;;;;;5019095;28;20210;-82
2023/10/28 00:31:23;;;;;;;5.70;2.60;;;12.20;99.90;;;;;;5035464;28;20174;-80
2023/10/28 00:33:50;;;;;;;4.20;2.17;;;12.20;99.90;;;;;;5019457;28;20174;-81
2023/10/28 00:36:16;;;;;;;4.87;2.73;;;12.20;99.90;;;;;;5020066;28;20166;-80
2023/10/28 00:38:42;;;;;;;4.17;2.40;;;12.10;99.90;;;;;;5019684;28;20178;-82
2023/10/28 00:41:09;;;;;;;4.33;2.53;;;12.20;99.90;;;;;;5016034;28;20242;-82
2023/10/28 00:43:35;;;;;;;5.27;2.67;;;12.10;99.90;;;;;;5033257;28;20558;-82
2023/10/28 00:46:03;;;;;;;5.53;2.60;;;12.20;99.90;;;;;;5016037;28;20174;-84
2023/10/28 00:48:31;;;;;;;7.67;2.77;;;12.20;99.90;;;;;;5034822;28;20225;-79
2023/10/28 00:50:57;;;;;;;8.23;2.63;;;12.20;99.90;;;;;;5019454;28;20201;-80
2023/10/28 00:53:25;;;;;;;5.87;2.30;;;12.20;99.90;;;;;;5020927;28;20158;-81
2023/10/28 00:55:51;;;;;;;8.53;3.10;;;12.10;99.90;;;;;;5031877;28;20647;-82
2023/10/28 00:58:20;;;;;;;6.87;2.77;;;12.10;99.90;;;;;;5032260;28;20634;-82
2023/10/28 01:00:58;;;;;;;5.40;2.40;;;12.10;99.90;;;;;;5016995;28;20171;-79
2023/10/28 01:03:24;;;;;;;4.30;2.50;;;12.20;99.90;;;;;;5013849;28;20634;-81
2023/10/28 01:05:51;;;;;;;4.93;2.37;;;12.10;99.90;;;;;;5014317;28;20180;-82
2023/10/28 01:08:17;;;;;;;7.60;2.67;;;12.10;99.90;;;;;;5030841;28;20276;-81
2023/10/28 01:10:43;;;;;;;6.23;4.33;;;12.00;99.90;;;;;;5014982;28;20163;-80
2023/10/28 01:13:09;;;;;;;5.00;2.50;;;12.10;99.90;;;;;;5016066;28;20173;-80
2023/10/28 01:15:35;;;;;;;6.30;2.60;;;11.90;99.90;;;;;;5014567;28;20529;-81
2023/10/28 01:18:01;;;;;;;5.03;2.57;;;12.00;99.90;;;;;;5016440;28;20633;-84
2023/10/28 01:20:27;;;;;;;4.77;2.37;;;12.00;99.90;;;;;;5031479;28;20227;-82
2023/10/28 01:22:54;;;;;;;3.97;2.00;;;12.00;99.90;;;;;;5014895;28;20545;-81
2023/10/28 01:25:20;;;;;;;5.70;2.67;;;12.00;99.90;;;;;;5014667;28;20240;-81
2023/10/28 01:27:46;;;;;;;5.13;2.33;;;11.90;99.90;;;;;;5015752;28;20195;-81
2023/10/28 01:30:16;;;;;;;6.27;2.50;;;12.00;99.90;;;;;;5015219;28;20542;-80
2023/10/28 01:32:42;;;;;;;4.17;2.23;;;12.00;99.90;;;;;;5015840;28;20153;-85
2023/10/28 01:35:09;;;;;;;7.27;2.80;;;12.00;99.90;;;;;;5029724;28;20177;-81
2023/10/28 01:37:37;;;;;;;8.10;2.53;;;12.00;99.90;;;;;;5015623;28;20196;-85
2023/10/28 01:40:09;;;;;;;6.60;2.30;;;11.90;99.90;;;;;;5015947;28;20163;-80
2023/10/28 01:42:35;;;;;;;4.83;2.50;;;11.90;99.90;;;;;;5018740;28;20174;-80
2023/10/28 01:45:03;;;;;;;5.40;2.70;;;11.90;99.90;;;;;;5017034;28;20197;-78
2023/10/28 01:47:29;;;;;;;6.03;2.43;;;11.90;99.90;;;;;;5020938;28;20197;-80
2023/10/28 01:49:57;;;;;;;6.30;2.40;;;12.00;99.90;;;;;;5020620;28;20213;-81
2023/10/28 01:52:23;;;;;;;8.13;2.63;;;12.00;99.90;;;;;;5022434;28;20172;-79
2023/10/28 01:54:49;;;;;;;6.13;2.60;;;12.00;99.90;;;;;;5019404;28;20170;-81
2023/10/28 01:57:15;;;;;;;5.63;2.70;;;12.00;99.90;;;;;;5015732;28;20228;-81
2023/10/28 01:59:40;;;;;;;5.37;2.50;;;12.00;99.90;;;;;;5015003;28;20196;-79
2023/10/28 02:02:07;;;;;;;7.20;2.70;;;12.00;99.90;;;;;;5030731;28;20256;-82
2023/10/28 02:04:39;;;;;;;8.53;3.00;;;12.00;99.90;;;;;;5016814;28;20189;-80
2023/10/28 02:07:06;;;;;;;5.30;2.53;;;12.10;99.90;;;;;;5034460;28;20208;-82
2023/10/28 02:09:40;;;;;;;5.70;2.13;;;12.10;99.90;;;;;;5018176;28;20159;-80
2023/10/28 02:12:06;;;;;;;5.93;2.60;;;12.10;99.90;;;;;;5018018;28;20181;-78
2023/10/28 02:14:33;;;;;;;7.07;2.47;;;12.10;99.90;;;;;;5019230;28;20219;-78
2023/10/28 02:16:59;;;;;;;5.03;2.47;;;12.20;99.90;;;;;;5033963;28;20169;-81
2023/10/28 02:19:25;;;;;;;4.93;2.73;;;12.10;98.40;;;;;;5019418;28;20185;-81
2023/10/28 02:21:50;;;;;;;6.97;2.77;;;12.10;99.90;;;;;;5019052;28;20567;-81
2023/10/28 02:24:19;;;;;;;5.93;2.73;;;12.10;99.90;;;;;;5017107;28;20186;-79
2023/10/28 02:26:45;;;;;;;5.67;2.60;;;12.10;99.90;;;;;;5017825;28;20252;-83
2023/10/28 02:29:12;;;;;;;6.27;2.60;;;12.10;99.90;;;;;;5019158;28;20186;-80
2023/10/28 02:31:37;;;;;;;6.80;2.80;;;12.10;99.90;;;;;;5019113;28;20155;-83
2023/10/28 02:34:06;;;;;;;8.00;2.83;;;12.10;99.90;;;;;;5016386;28;20657;-80
2023/10/28 02:36:32;;;;;;;8.17;2.97;;;12.10;99.90;;;;;;5034664;28;20178;-82
2023/10/28 02:38:58;;;;;;;5.93;2.53;;;12.20;99.90;;;;;;5018898;28;20173;-79
2023/10/28 02:41:25;;;;;;;6.70;2.67;;;12.20;99.90;;;;;;5018781;28;20244;-80
2023/10/28 02:43:51;;;;;;;6.03;2.77;;;12.20;99.90;;;;;;5018799;28;20165;-81
2023/10/28 02:46:23;;;;;;;7.10;2.77;;;12.20;99.90;;;;;;5033623;28;20540;-81
2023/10/28 02:48:49;;;;;;;8.43;3.10;;;12.20;99.90;;;;;;5018663;28;20221;-81
2023/10/28 02:51:15;;;;;;;9.23;3.03;;;12.30;99.90;;;;;;5033201;28;20177;-81
2023/10/28 02:53:41;;;;;;;10.10;2.90;;;12.20;99.90;;;;;;5018495;28;20174;-80
2023/10/28 02:56:08;;;;;;;10.50;3.13;;;12.20;99.90;;;;;;5018610;28;20572;-79
2023/10/28 02:58:34;;;;;;;6.40;2.83;;;12.10;99.90;;;;;;5026482;28;20171;-78
2023/10/28 03:01:10;;;;;;;7.43;2.93;;;12.10;99.90;;;;;;5026478;28;20178;-82
2023/10/28 03:03:36;;;;;;;7.57;2.83;;;12.10;99.90;;;;;;5027078;28;20193;-79
2023/10/28 03:06:03;;;;;;;6.40;3.00;;;12.30;99.90;;;;;;5029601;28;20171;-79
2023/10/28 03:08:28;;;;;;;8.17;3.27;;;12.20;99.90;;;;;;5030791;28;20213;-79
2023/10/28 03:10:54;;;;;;;6.27;3.20;;;12.20;99.90;;;;;;5030943;28;20723;-79
2023/10/28 03:13:21;;;;;;;7.87;3.07;;;12.20;99.90;;;;;;5029473;28;20202;-78
2023/10/28 03:15:50;;;;;;;6.50;2.90;;;12.10;99.90;;;;;;5020945;28;20197;-80
2023/10/28 03:18:17;;;;;;;7.90;2.73;;;12.10;99.90;;;;;;5020839;28;20182;-79
2023/10/28 03:20:47;;;;;;;9.00;3.00;;;12.20;99.90;;;;;;5036453;28;20177;-81
2023/10/28 03:23:16;;;;;;;6.03;2.60;;;12.30;99.90;;;;;;5035178;28;20596;-78
2023/10/28 03:25:46;;;;;;;6.50;2.30;;;12.30;99.90;;;;;;5017624;28;20180;-81
2023/10/28 03:28:21;;;;;;;8.07;2.47;;;12.40;99.90;;;;;;5018827;28;20201;-83
2023/10/28 03:30:50;;;;;;;8.57;2.63;;;12.30;99.90;;;;;;5019566;28;20200;-82
2023/10/28 03:33:16;;;;;;;6.80;2.40;;;12.20;99.90;;;;;;5019169;28;20197;-84
2023/10/28 03:35:43;;;;;;;9.53;2.63;;;12.20;99.90;;;;;;5022062;28;20178;-84
2023/10/28 03:38:09;;;;;;;6.67;2.50;;;12.30;99.90;;;;;;5044522;28;20181;-85
2023/10/28 03:40:37;;;;;;;6.33;2.47;;;12.30;99.90;;;;;;5047346;28;20209;-84
2023/10/28 03:43:04;;;;;;;6.70;2.20;;;12.40;99.90;;;;;;5031895;28;20166;-82
2023/10/28 03:45:37;;;;;;;5.27;1.97;;;12.30;99.90;;;;;;5032802;28;20174;-79
2023/10/28 03:48:03;;;;;;;6.13;2.30;;;12.40;99.90;;;;;;5021525;28;20240;-85
2023/10/28 03:50:30;;;;;;;6.23;2.60;;;12.40;99.90;;;;;;5020291;28;20607;-86
2023/10/28 03:52:56;;;;;;;5.57;2.53;;;12.40;99.90;;;;;;5019207;28;20181;-84
2023/10/28 03:55:23;;;;;;;8.43;2.37;;;12.40;99.90;;;;;;5020500;28;20593;-86
2023/10/28 03:57:48;;;;;;;6.43;2.27;;;12.60;99.90;;;;;;5029061;28;20507;-86
2023/10/28 04:00:14;;;;;;;7.10;2.00;;;12.50;99.90;;;;;;5029220;28;20177;-83
2023/10/28 04:02:40;;;;;;;7.73;2.10;;;12.50;99.90;;;;;;5028618;28;20416;-83
2023/10/28 04:05:06;;;;;;;6.10;2.30;;;12.40;99.90;;;;;;5038076;28;20622;-83
2023/10/28 04:07:33;;;;;;;7.07;2.20;;;12.40;99.90;;;;;;5047215;28;20237;-81
2023/10/28 04:10:04;;;;;;;8.10;2.50;;;12.50;99.90;;;;;;5041928;28;20212;-84
2023/10/28 04:12:32;;;;;;;6.57;2.00;;;12.50;99.90;;;;;;5041663;28;20173;-81
2023/10/28 04:14:57;;;;;;;8.63;2.10;;;12.50;99.90;;;;;;5042247;28;20208;-86
2023/10/28 04:17:24;;;;;;;7.33;2.00;;;12.50;99.90;;;;;;5043341;28;20174;-85
2023/10/28 04:19:50;;;;;;;6.00;2.20;;;12.50;99.90;;;;;;5041772;28;20170;-86
2023/10/28 04:22:15;;;;;;;6.40;2.03;;;12.60;99.90;;;;;;5041591;28;20176;-87
2023/10/28 04:24:41;;;;;;;8.37;2.00;;;12.50;99.90;;;;;;5040617;28;20161;-80
2023/10/28 04:27:07;;;;;;;7.73;2.13;;;12.50;99.90;;;;;;5037860;28;20236;-85
2023/10/28 04:29:35;;;;;;;7.80;2.17;;;12.50;99.90;;;;;;5042396;28;20175;-86
2023/10/28 04:32:00;;;;;;;10.40;2.43;;;12.60;99.90;;;;;;5041668;28;20174;-79
2023/10/28 04:34:26;;;;;;;6.50;1.90;;;12.60;99.90;;;;;;5037373;28;20180;-83
2023/10/28 04:36:54;;;;;;;8.60;2.40;;;12.70;99.90;;;;;;5036583;28;20227;-85
2023/10/28 04:39:23;;;;;;;7.20;1.90;;;12.60;99.90;;;;;;5036462;28;20173;-83
2023/10/28 04:41:52;;;;;;;11.97;2.40;;;12.60;99.90;;;;;;5036212;28;20208;-83
2023/10/28 04:44:20;;;;;;;10.40;2.60;;;12.60;99.90;;;;;;5050663;28;20181;-85
2023/10/28 04:46:45;;;;;;;8.50;2.30;;;12.60;99.90;;;;;;5057037;28;20264;-80
2023/10/28 04:49:11;;;;;;;10.30;2.67;;;12.70;99.90;;;;;;5055469;28;20185;-82
2023/10/28 04:51:37;;;;;;;9.40;2.60;;;12.60;99.90;;;;;;5046850;28;20633;-82
2023/10/28 04:54:03;;;;;;;8.17;2.47;;;12.70;99.90;;;;;;5044059;28;20170;-83
2023/10/28 04:56:29;;;;;;;7.83;2.37;;;12.70;99.90;;;;;;5042517;28;20196;-85
2023/10/28 04:58:57;;;;;;;9.93;2.77;;;12.70;99.90;;;;;;5036187;28;20624;-82
2023/10/28 05:01:29;;;;;;;7.87;2.47;;;12.80;99.90;;;;;;5036134;28;20673;-84
2023/10/28 05:04:18;;;;;;;9.50;2.33;;;12.70;99.90;;;;;;5037565;28;20534;-85
2023/10/28 05:06:43;;;;;;;10.00;3.30;;;12.70;99.90;;;;;;5035714;28;20638;-86
2023/10/28 05:09:09;;;;;;;10.97;2.77;;;12.70;99.90;;;;;;5037151;28;20189;-87
2023/10/28 05:11:35;;;;;;;10.83;2.77;;;12.70;99.90;;;;;;5036076;28;20173;-85
2023/10/28 05:14:01;;;;;;;5.00;2.43;;;12.70;99.90;;;;;;5035881;28;20192;-86
2023/10/28 05:16:28;;;;;;;8.27;2.70;;;12.80;99.90;;;;;;5037118;28;20236;-84
2023/10/28 05:18:54;;;;;;;11.70;2.70;;;12.80;99.90;;;;;;5035841;28;20181;-81
2023/10/28 05:21:20;;;;;;;11.03;2.97;;;12.70;99.90;;;;;;5037568;28;20219;-87
2023/10/28 05:23:45;;;;;;;9.40;2.90;;;12.70;99.90;;;;;;5049760;28;20169;-81
2023/10/28 05:26:11;;;;;;;12.53;2.90;;;12.70;99.90;;;;;;5057531;28;20180;-82
2023/10/28 05:28:39;;;;;;;11.07;2.57;;;12.70;99.90;;;;;;5033853;28;20241;-83
2023/10/28 05:31:04;;;;;;;11.53;2.83;;;12.80;99.90;;;;;;5014940;28;20190;-86
2023/10/28 05:33:30;;;;;;;9.97;2.60;;;12.70;99.90;;;;;;5007724;28;20159;-83
2023/10/28 05:35:56;;;;;;;10.07;2.67;;;12.60;99.90;;;;;;5007781;28;20242;-82
2023/10/28 05:38:21;;;;;;;11.57;2.63;;;12.70;99.90;;;;;;5006776;28;20168;-85
2023/10/28 05:40:47;;;;;;;9.37;2.63;;;12.70;99.90;;;;;;5003887;28;20697;-82
2023/10/28 05:43:15;;;;;;;10.70;2.63;;;12.70;99.90;;;;;;5000237;28;20182;-85
2023/10/28 05:45:49;;;;;;;6.67;2.10;;;12.60;99.90;;;;;;5001805;28;20652;-84
2023/10/28 05:48:15;;;;;;;11.07;3.03;;;12.70;99.90;;;;;;5000019;28;20244;-85
2023/10/28 05:50:47;;;;;;;6.73;2.40;;;12.60;99.90;;;;;;5001647;28;20269;-85
2023/10/28 05:53:13;;;;;;;8.50;2.50;;;12.60;99.90;;;;;;5000737;28;20181;-84
2023/10/28 05:55:39;;;;;;;9.43;2.57;;;12.60;99.90;;;;;;5001619;28;20179;-85
2023/10/28 05:58:05;;;;;;;11.50;2.57;;;12.60;99.90;;;;;;5001823;28;20171;-86
2023/10/28 06:00:31;;;;;;;12.03;3.60;;;12.60;99.90;;;;;;5000797;28;20201;-85
2023/10/28 06:02:57;;;;;;;9.43;2.80;;;12.60;99.90;;;;;;5002815;28;20710;-83
2023/10/28 06:05:23;;;;;;;7.13;2.20;;;12.60;99.90;;;;;;4999937;28;20235;-86
2023/10/28 06:07:49;;;;;;;7.70;2.60;;;12.70;99.90;;;;;;5000721;28;20602;-85
2023/10/28 06:10:15;;;;;;;9.10;2.77;;;12.70;99.90;;;;;;5000672;28;20185;-85
2023/10/28 06:12:41;;;;;;;11.73;2.77;;;12.60;99.90;;;;;;5000942;28;20189;-82
2023/10/28 06:15:07;;;;;;;8.67;2.20;;;12.60;99.90;;;;;;5000082;28;20169;-85
2023/10/28 06:17:34;;;;;;;5.90;2.10;;;12.60;99.90;;;;;;5000571;28;20265;-86
2023/10/28 06:20:01;;;;;;;9.30;2.90;;;12.70;99.90;;;;;;5000110;28;20175;-84
2023/10/28 06:22:27;;;;;;;9.43;2.70;;;12.60;99.90;;;;;;5001590;28;20206;-84
2023/10/28 06:24:54;;;;;;;7.50;2.40;;;12.60;99.90;;;;;;5002103;28;20167;-80
2023/10/28 06:27:22;;;;;;;9.70;2.43;;;12.60;99.90;;;;;;5003917;28;20205;-81
2023/10/28 06:29:48;;;;;;;6.40;2.47;;;12.60;99.90;;;;;;5014677;28;20162;-80
2023/10/28 06:32:14;;;;;;;6.77;2.33;;;12.60;99.90;;;;;;5012193;28;20175;-84
2023/10/28 06:34:41;;;;;;;7.87;2.60;;;12.60;99.90;;;;;;5014438;28;20185;-82
2023/10/28 06:37:06;;;;;;;6.60;2.40;;;12.60;99.90;;;;;;5013542;28;20542;-83
2023/10/28 06:39:35;;;;;;;8.93;2.70;;;12.60;99.90;;;;;;5009789;28;20215;-82
2023/10/28 06:42:04;;;;;;;6.93;1.87;;;12.70;99.90;;;;;;5002593;28;20179;-86
2023/10/28 06:44:35;;;;;;;7.97;2.47;;;12.50;99.90;;;;;;5003345;28;20167;-83
2023/10/28 06:47:01;;;;;;;9.13;2.47;;;12.60;99.90;;;;;;5002677;28;20210;-86
2023/10/28 06:49:26;;;;;;;8.67;2.90;;;12.50;99.90;;;;;;5000088;28;20205;-86
2023/10/28 06:51:53;;;;;;;9.37;2.50;;;12.70;99.90;;;;;;5000955;28;20179;-85
2023/10/28 06:54:20;;;;;;;8.20;2.47;;;12.60;99.90;;;;;;5004217;28;20167;-87
2023/10/28 06:56:46;;;;;;;10.10;2.60;;;12.60;99.90;;;;;;5002522;28;20314;-85
2023/10/28 06:59:12;;;;;;;9.97;2.30;;;12.60;99.90;;;;;;5001623;28;20209;-85
2023/10/28 07:01:37;;;;;;;8.77;2.47;;;12.60;99.90;;;;;;4999777;28;20642;-86
2023/10/28 07:04:05;;;;;;;7.77;2.20;;;12.70;99.90;;;;;;5002076;28;20218;-83
2023/10/28 07:06:31;;;;;;;7.40;2.53;;;12.60;99.90;;;;;;4999044;28;20282;-84
2023/10/28 07:09:00;;;;;;;10.07;2.23;;;12.70;99.90;;;;;;4999634;28;20195;-84
2023/10/28 07:11:25;;;;;;;9.63;2.20;;;12.60;99.90;;;;;;4998163;28;20183;-80
2023/10/28 07:13:51;;;;;;;7.13;2.77;;;12.60;99.90;;;;;;5011248;28;20213;-80
2023/10/28 07:16:17;;;;;;;7.73;2.20;;;12.60;99.90;;;;;;5011076;28;20178;-81
2023/10/28 07:18:44;;;;;;;9.70;2.30;;;12.70;99.90;;;;;;5007648;28;20206;-83
2023/10/28 07:21:09;;;;;;;8.30;2.60;;;12.70;99.90;;;;;;5000800;28;20193;-82
2023/10/28 07:23:35;;;;;;;7.60;2.77;;;12.60;99.90;;;;;;4998572;28;20261;-81
2023/10/28 07:26:04;;;;;;;7.17;2.30;;;12.70;99.90;;;;;;4999151;28;20170;-84
2023/10/28 07:29:26;;;;;;;10.33;2.47;;;12.70;99.90;;;;;;4999485;28;20199;-80
2023/10/28 07:31:52;;;;;;;6.80;2.00;;;12.70;99.90;;;;;;4999018;28;20176;-87
2023/10/28 07:34:18;;;;;;;9.43;2.37;;;12.80;99.90;;;;;;5001778;28;20632;-86
2023/10/28 07:36:44;;;;;;;9.53;2.53;;;12.80;99.90;;;;;;4999749;28;20165;-89
2023/10/28 07:39:10;;;;;;;8.47;2.40;;;12.90;99.90;;;;;;4999395;28;20222;-82
2023/10/28 07:41:37;;;;;;;7.67;2.40;;;12.90;98.80;;;;;;4999803;28;20180;-85
2023/10/28 07:44:03;;;;;;;6.03;2.40;;;12.90;97.40;;;;;;4999592;28;20233;-87
2023/10/28 07:46:30;;;;;;;6.97;2.20;;;13.00;97.70;;;;;;5002062;28;20785;-86
2023/10/28 07:48:56;;;;;;;8.43;2.67;;;13.00;95.90;;;;;;5001482;28;20202;-87
2023/10/28 07:51:22;;;;;;;9.90;2.67;;;12.90;94.30;;;;;;4999257;28;20654;-85
2023/10/28 07:53:52;;;;;;;6.50;2.53;;;13.00;93.50;;;;;;4999386;28;20167;-86
2023/10/28 07:56:18;;;;;;;6.53;2.03;;;13.00;92.90;;;;;;4999217;28;20163;-87
2023/10/28 07:58:47;;;;;;;5.70;2.50;;;13.10;92.10;;;;;;5028389;28;20184;-81
2023/10/28 08:01:16;;;;;;;7.17;1.93;;;13.20;90.60;;;;;;5036446;28;20213;-80
2023/10/28 08:03:43;;;;;;;6.50;2.30;;;13.20;86.70;;;;;;5038709;28;20249;-83
2023/10/28 08:06:10;;;;;;;6.67;2.17;;;13.20;87.50;;;;;;5038439;28;20245;-87
2023/10/28 08:08:37;;;;;;;6.33;2.10;;;13.30;88.40;;;;;;5037900;28;20209;-82
2023/10/28 08:11:08;;;;;;;7.10;2.27;;;13.40;84.30;;;;;;5036797;28;20188;-86
2023/10/28 08:13:37;;;;;;;6.30;1.80;;;13.30;79.90;;;;;;5037069;28;20177;-82
2023/10/28 08:16:03;;;;;;;7.97;2.13;;;13.20;76.90;;;;;;5037944;28;20261;-82
2023/10/28 08:18:31;;;;;;;8.33;2.13;;;13.30;77.40;;;;;;5034386;28;20176;-87
2023/10/28 08:20:57;;;;;;;4.80;2.00;;;13.30;77.20;;;;;;5006966;28;20312;-85
2023/10/28 08:23:30;;;;;;;5.37;2.00;;;13.40;74.90;;;;;;5006619;28;20205;-84
2023/10/28 08:25:59;;;;;;;6.53;1.70;;;13.30;76.50;;;;;;5006903;28;20224;-82
2023/10/28 08:28:27;;;;;;;7.47;1.80;;;13.20;77.50;;;;;;5007751;28;20726;-86
2023/10/28 08:30:54;;;;;;;5.70;1.90;;;13.20;75.50;;;;;;5004500;28;20170;-81
2023/10/28 08:33:22;;;;;;;10.43;2.07;;;13.20;71.70;;;;;;4996354;28;20218;-88
2023/10/28 08:35:48;;;;;;;7.90;2.00;;;13.20;69.40;;;;;;5012523;28;20176;-84
2023/10/28 08:38:20;;;;;;;5.90;1.93;;;13.30;66.00;;;;;;5000127;28;20214;-82
2023/10/28 08:40:46;;;;;;;5.83;2.10;;;13.30;63.70;;;;;;5000096;28;20178;-87
2023/10/28 08:43:14;;;;;;;10.30;2.87;;;13.30;65.50;;;;;;4997973;28;20167;-86
2023/10/28 08:45:41;;;;;;;5.87;1.70;;;13.30;62.50;;;;;;5008238;28;20178;-86
2023/10/28 08:48:10;;;;;;;7.43;1.93;;;13.30;60.00;;;;;;5014989;28;20222;-87
2023/10/28 08:50:39;;;;;;;7.30;2.00;;;13.30;56.10;;;;;;4997754;28;20201;-84
2023/10/28 08:53:10;;;;;;;9.80;2.33;;;13.40;55.70;;;;;;5006583;28;20178;-87
2023/10/28 08:55:36;;;;;;;8.80;2.30;;;13.40;54.30;;;;;;5019345;28;20178;-89
2023/10/28 08:58:09;;;;;;;7.33;2.27;;;13.40;51.90;;;;;;5018694;28;20664;-87
2023/10/28 09:00:35;;;;;;;7.67;2.40;;;13.40;51.60;;;;;;5016948;28;20619;-85
2023/10/28 09:03:06;;;;;;;5.80;2.00;;;13.50;50.70;;;;;;5012771;28;20214;-86
2023/10/28 09:05:32;;;;;;;6.40;2.17;;;13.60;46.90;;;;;;5017445;28;20693;-82
2023/10/28 09:07:57;;;;;;;6.47;2.47;;;13.70;42.80;;;;;;5016177;28;20202;-81
2023/10/28 09:10:26;;;;;;;8.97;3.40;;;13.90;40.10;;;;;;5014817;28;20538;-79
2023/10/28 09:12:52;;;;;;;5.53;2.00;;;13.90;38.10;;;;;;5014640;28;20177;-81
2023/10/28 09:15:18;;;;;;;5.83;2.00;;;14.00;35.80;;;;;;5015717;28;20221;-85
2023/10/28 09:17:44;;;;;;;7.90;2.30;;;14.10;29.50;;;;;;5016621;28;20170;-84
2023/10/28 09:20:11;;;;;;;9.53;2.37;;;14.10;29.00;;;;;;5022489;28;20180;-84
2023/10/28 09:22:42;;;;;;;7.77;2.73;;;14.10;28.40;;;;;;5037336;28;20296;-84
2023/10/28 09:25:09;;;;;;;7.47;2.17;;;14.10;27.60;;;;;;5037958;28;20177;-82
2023/10/28 09:27:36;;;;;;;6.80;2.50;;;14.20;27.30;;;;;;5040438;28;20239;-86
2023/10/28 09:30:06;;;;;;;8.50;2.43;;;14.20;27.80;;;;;;5042418;28;20189;-86
2023/10/28 09:32:35;;;;;;;9.73;2.30;;;14.30;22.90;;;;;;5025303;28;20201;-85
2023/10/28 09:35:09;;;;;;;8.00;2.40;;;14.40;21.10;;;;;;5045483;28;20176;-86
2023/10/28 09:37:39;;;;;;;8.77;2.80;;;14.40;20.40;;;;;;5037311;28;20184;-82
2023/10/28 09:40:07;;;;;;;8.53;2.47;;;14.40;20.80;;;;;;5030053;28;20175;-85
2023/10/28 09:42:37;;;;;;;12.07;4.40;;;14.40;18.00;;;;;;5017931;28;20186;-85
2023/10/28 09:45:05;;;;;;;10.90;3.10;;;14.40;17.20;;;;;;5015894;28;20273;-86
2023/10/28 09:47:57;;;;;;;10.20;3.20;;;14.30;17.70;;;;;;5017992;28;20225;-86
2023/10/28 09:50:25;;;;;;;9.20;2.40;;;14.40;16.80;;;;;;5017480;28;20185;-81
2023/10/28 09:52:56;;;;;;;11.57;3.40;;;14.60;13.20;;;;;;5016138;28;20221;-85
2023/10/28 09:55:36;;;;;;;10.33;2.67;;;14.70;8.80;;;;;;5017683;28;20192;-84
2023/10/28 09:58:24;;;;;;;10.63;2.90;;;14.70;12.00;;;;;;5018481;28;20183;-85
2023/10/28 10:00:53;;;;;;;11.33;3.00;;;14.40;12.70;;;;;;5024313;28;20178;-81
2023/10/28 10:03:44;;;;;;;14.13;3.50;;;14.50;14.70;;;;;;5029560;28;20231;-79
2023/10/28 10:06:11;;;;;;;11.83;2.90;;;14.40;16.60;;;;;;5021903;28;20177;-81
2023/10/28 10:08:48;;;;;;;8.97;2.80;;;14.50;17.10;;;;;;5026061;28;20213;-82
2023/10/28 10:11:13;;;;;;;12.80;3.20;;;14.40;18.00;;;;;;5026705;28;20170;-84
2023/10/28 10:13:44;;;;;;;10.77;3.17;;;14.30;18.50;;;;;;5030115;28;20166;-83
2023/10/28 10:16:27;;;;;;;13.90;3.17;;;14.20;20.00;;;;;;5032572;28;20196;-81
2023/10/28 10:18:55;;;;;;;14.67;3.53;;;14.20;20.30;;;;;;5033091;28;20170;-82
2023/10/28 10:21:22;;;;;;;9.73;3.30;;;14.20;22.20;;;;;;5032180;28;20640;-83
2023/10/28 10:23:52;;;;;;;12.70;3.30;;;14.50;21.30;;;;;;5018864;28;20188;-83
2023/10/28 10:26:22;;;;;;;12.53;3.20;;;14.60;19.90;;;;;;5022813;28;20175;-82
2023/10/28 10:28:50;;;;;;;9.73;3.20;;;14.80;15.70;;;;;;5022694;28;20207;-85
2023/10/28 10:31:22;;;;;;;12.80;3.30;;;14.80;14.00;;;;;;5009541;28;20221;-83
2023/10/28 10:34:03;;;;;;;9.43;3.10;;;14.70;15.30;;;;;;5019281;28;20247;-85
2023/10/28 10:36:35;;;;;;;13.03;2.90;;;14.70;14.50;;;;;;5020249;28;20171;-84
2023/10/28 10:39:16;;;;;;;11.67;3.37;;;14.80;13.10;;;;;;5021295;28;20166;-85
2023/10/28 10:42:05;;;;;;;17.63;3.53;;;14.80;11.80;;;;;;5020244;28;20189;-83
2023/10/28 10:44:33;;;;;;;10.27;2.83;;;14.80;10.20;;;;;;5019483;28;20704;-84
2023/10/28 10:47:00;;;;;;;13.80;3.00;;;14.80;11.20;;;;;;5018746;28;20291;-84
2023/10/28 10:49:26;;;;;;;13.10;3.40;;;14.90;9.30;;;;;;5019618;28;20661;-83
2023/10/28 10:51:53;;;;;;;11.43;3.27;;;14.90;8.60;;;;;;5012591;28;20682;-82
2023/10/28 10:54:19;;;;;;;11.77;3.33;;;14.80;11.90;;;;;;4998346;28;20549;-81
2023/10/28 10:56:45;;;;;;;12.87;3.50;;;14.80;10.40;;;;;;5011285;28;20189;-82
2023/10/28 10:59:11;;;;;;;9.50;3.30;;;14.80;10.90;;;;;;5016965;28;20177;-84
2023/10/28 11:01:38;;;;;;;11.80;3.37;;;14.80;11.40;;;;;;5017454;28;20683;-83
2023/10/28 11:04:05;;;;;;;14.00;3.37;;;14.70;11.30;;;;;;5016500;28;20266;-83
2023/10/28 11:06:31;;;;;;;11.23;3.50;;;14.70;14.40;;;;;;5006981;28;20194;-84
2023/10/28 11:08:57;;;;;;;13.37;3.13;;;14.70;16.00;;;;;;5009751;28;20215;-85
2023/10/28 11:11:22;;;;;;;12.47;3.27;;;14.80;16.20;;;;;;5019476;28;20743;-82
2023/10/28 11:13:48;;;;;;;13.57;3.87;;;15.00;15.20;;;;;;5014622;28;20548;-85
2023/10/28 11:16:30;;;;;;;14.83;3.47;;;15.10;11.20;;;;;;5020184;28;20182;-84
2023/10/28 11:18:56;;;;;;;10.87;3.20;;;15.10;9.00;;;;;;5011986;28;20175;-84
2023/10/28 11:21:28;;;;;;;12.97;3.57;;;15.20;8.70;;;;;;5009257;28;20176;-85
2023/10/28 11:23:59;;;;;;;10.00;2.87;;;15.20;6.60;;;;;;5008383;28;20164;-82
2023/10/28 11:26:30;;;;;;;11.03;3.37;;;15.30;1.00;;;;;;5046460;28;20203;-83
2023/10/28 11:29:00;;;;;;;9.40;3.23;;;15.30;1.00;;;;;;5040132;28;20203;-82
2023/10/28 11:31:31;;;;;;;11.73;3.20;;;15.20;1.00;;;;;;5035288;28;20158;-82
2023/10/28 11:34:01;;;;;;;12.53;3.20;;;15.10;3.30;;;;;;5025516;28;20203;-85
2023/10/28 11:36:27;;;;;;;8.23;3.13;;;15.10;3.30;;;;;;5049734;28;20164;-82
2023/10/28 11:38:56;;;;;;;9.30;3.10;;;15.20;2.60;;;;;;5035079;28;20177;-81
2023/10/28 11:41:22;;;;;;;11.73;3.23;;;15.30;1.00;;;;;;5030866;28;20178;-82
2023/10/28 11:43:55;;;;;;;9.50;2.83;;;15.30;1.00;;;;;;5029843;28;20172;-81
2023/10/28 11:46:24;;;;;;;10.93;3.13;;;15.40;1.00;;;;;;5032367;28;20177;-82
2023/10/28 11:48:50;;;;;;;10.33;2.80;;;15.40;1.00;;;;;;5031836;28;20221;-82
2023/10/28 11:51:18;;;;;;;10.27;3.00;;;15.30;1.00;;;;;;5027462;28;20341;-87
2023/10/28 11:53:47;;;;;;;9.50;3.00;;;15.40;1.00;;;;;;5018677;28;20243;-86
2023/10/28 11:56:19;;;;;;;8.23;2.87;;;15.40;1.00;;;;;;5007646;28;20271;-86
2023/10/28 11:58:52;;;;;;;10.87;3.20;;;15.40;1.00;;;;;;5037075;28;20182;-85
2023/10/28 12:01:17;;;;;;;10.60;3.00;;;15.50;1.00;;;;;;5007485;28;20176;-83
2023/10/28 12:03:45;;;;;;;10.80;3.17;;;15.60;1.00;;;;;;5022409;28;20184;-80
2023/10/28 12:06:11;;;;;;;10.53;2.90;;;15.60;1.00;;;;;;5037309;28;20273;-82
2023/10/28 12:08:36;;;;;;;10.97;3.30;;;15.70;1.00;;;;;;5040050;28;20341;-83
2023/10/28 12:11:02;;;;;;;12.27;3.87;;;15.60;1.00;;;;;;5045702;28;20181;-83
2023/10/28 12:13:28;;;;;;;8.67;3.43;;;15.60;1.00;;;;;;5042712;28;20207;-84
2023/10/28 12:15:55;;;;;;;13.50;3.80;;;15.60;1.00;;;;;;5037005;28;20178;-87
2023/10/28 12:18:20;;;;;;;8.33;3.10;;;15.60;1.00;;;;;;5029972;28;20173;-85
2023/10/28 12:20:48;;;;;;;10.70;3.07;;;15.80;1.00;;;;;;5043036;28;20194;-83
2023/10/28 12:23:16;;;;;;;10.50;3.00;;;15.80;1.00;;;;;;5045040;28;21590;-83
2023/10/28 12:25:42;;;;;;;8.13;2.77;;;15.70;1.00;;;;;;5023302;28;20217;-82
2023/10/28 12:28:08;;;;;;;7.03;2.73;;;15.80;1.00;;;;;;5021345;28;20240;-83
2023/10/28 12:30:34;;;;;;;11.27;2.80;;;15.90;1.00;;;;;;5038902;28;20182;-84
2023/10/28 12:33:00;;;;;;;8.53;2.53;;;15.90;1.00;;;;;;5013346;28;20212;-84
2023/10/28 12:35:28;;;;;;;8.17;2.60;;;15.90;1.00;;;;;;5010470;28;20258;-85
2023/10/28 12:37:57;;;;;;;8.93;2.93;;;15.80;1.00;;;;;;5010755;28;20181;-85
2023/10/28 12:40:26;;;;;;;13.60;3.57;;;15.70;1.00;;;;;;5008554;28;20187;-84
2023/10/28 12:42:57;;;;;;;6.43;2.53;;;15.90;1.00;;;;;;5018775;28;20194;-85
2023/10/28 12:45:23;;;;;;;9.10;3.00;;;15.90;1.00;;;;;;5021882;28;20171;-86
2023/10/28 12:47:52;;;;;;;11.80;3.03;;;15.90;1.00;;;;;;5005847;28;20214;-85
2023/10/28 12:50:26;;;;;;;10.27;2.70;;;16.00;1.00;;;;;;5021015;28;20193;-85